Delaware, Ohio
Current Conditions -  °F | °C
As of 1:37 AM on Friday 31 Oct 2014 (Local Time) from KDLZ Reporting Station
Broken Clouds Broken Clouds  
Wind Chill: 41°   Ceiling: 4300
Heat Index: 41°   Visibility: 10mi
Dew Point: 34°   Wind: 0mph
Humidity: 76%   Direction: NA
Pressure: 30.03"   Gusts: NA
Location:  40.3°N, 83.06°W
Report Text: KDLZ 310537Z AUTO 00000KT 10SM BKN043 BKN085 05/01 A3003 RMK AO2
Loading
Personal Weather Stations






























Interactive Weather Map
Tropical Storm Tracking
New forecast layout! Learn more

10-Day Weather Forecast

Advertisements
Track Severe Weather on mobile